Leonard, Minnesota
Current Conditions -  °F | °C
As of 7:13 AM on Friday 31 Oct 2014 (Local Time) from KBJI Reporting Station
Clear Clear  
Wind Chill: 20°   Ceiling: Unl
Heat Index: 20°   Visibility: 10mi
Dew Point: 15°   Wind: 3mph
Humidity: 81%   Direction: 50°NE
Pressure: 30.55"   Gusts: NA
Location:  47.65°N, 95.27°W
Report Text: KBJI 311213Z AUTO 05003KT 10SM CLR M07/M09 A3055 RMK AO2 T10661094
Loading
Personal Weather Stations






























Interactive Weather Map
Tropical Storm Tracking
New forecast layout! Learn more

10-Day Weather Forecast

Advertisements
Track Severe Weather on mobile